Time;durP1;ratioP1;P1;durP2;ratioP2;P2;SDS_P1;SDS_P2;PMS_P1;PMS_P2;Temp;Humidity;BMP_temperature;BMP_pressure;BME280_temperature;BME280_humidity;BME280_pressure;Samples;Min_cycle;Max_cycle;Signal;HPM_P1;HPM_P2
2023/03/24 00:00:22;;;;;;;4.50;3.40;;;;;13.20;95662.00;;;;8467587;28;20220;-72
2023/03/24 00:04:31;;;;;;;4.47;3.58;;;;;13.10;95651.00;;;;8466885;28;20735;-72
2023/03/24 00:08:42;;;;;;;6.53;3.85;;;;;13.10;95641.00;;;;8467856;28;20547;-72
2023/03/24 00:12:47;;;;;;;6.03;3.70;;;;;13.00;95638.00;;;;8466773;28;20735;-72
2023/03/24 00:16:51;;;;;;;5.40;3.92;;;;;12.90;95635.00;;;;8467576;28;20253;-72
2023/03/24 00:20:57;;;;;;;6.63;4.32;;;;;12.90;95630.00;;;;8467035;28;20201;-72
2023/03/24 00:25:03;;;;;;;4.43;3.22;;;;;12.90;95629.00;;;;8464906;28;20198;-72
2023/03/24 00:29:12;;;;;;;6.63;3.60;;;;;12.90;95628.00;;;;8466114;28;20272;-72
2023/03/24 00:33:15;;;;;;;6.30;3.67;;;;;12.90;95617.00;;;;8466025;28;20186;-72
2023/03/24 00:37:22;;;;;;;4.15;3.38;;;;;12.90;95609.00;;;;8466459;28;20194;-72
2023/03/24 00:41:28;;;;;;;5.10;3.38;;;;;13.00;95603.00;;;;8466550;28;20660;-72
2023/03/24 00:45:35;;;;;;;5.22;3.70;;;;;13.00;95594.00;;;;8466777;28;20198;-72
2023/03/24 00:49:44;;;;;;;4.55;3.60;;;;;13.10;95594.00;;;;8464779;28;20267;-72
2023/03/24 00:53:48;;;;;;;4.20;3.22;;;;;13.10;95591.00;;;;8466004;28;20203;-72
2023/03/24 00:57:53;;;;;;;3.85;3.47;;;;;13.20;95577.00;;;;8465702;28;20197;-72
2023/03/24 01:01:58;;;;;;;7.68;3.28;;;;;13.20;95567.00;;;;8465654;28;20187;-72
2023/03/24 01:06:03;;;;;;;5.75;3.50;;;;;13.30;95577.00;;;;8464995;28;20200;-72
2023/03/24 01:10:07;;;;;;;5.35;3.53;;;;;13.40;95573.00;;;;8465850;28;20228;-72
2023/03/24 01:14:11;;;;;;;3.88;3.20;;;;;13.50;95585.00;;;;8461517;28;20196;-72
2023/03/24 01:18:17;;;;;;;4.90;3.40;;;;;13.60;95586.00;;;;8466120;28;20230;-72
2023/03/24 01:22:26;;;;;;;3.80;3.20;;;;;13.60;95586.00;;;;8465064;28;20196;-73
2023/03/24 01:26:31;;;;;;;4.80;3.85;;;;;13.60;95584.00;;;;8463825;28;20193;-73
2023/03/24 01:30:34;;;;;;;5.25;3.42;;;;;13.50;95581.00;;;;8465715;28;20683;-73
2023/03/24 01:34:39;;;;;;;6.43;3.17;;;;;13.60;95591.00;;;;8463788;28;20190;-72
2023/03/24 01:38:57;;;;;;;7.82;3.80;;;;;13.60;95580.00;;;;8464362;28;20247;-73
2023/03/24 01:43:02;;;;;;;4.05;3.50;;;;;13.40;95574.00;;;;8463118;28;20199;-72
2023/03/24 01:47:13;;;;;;;7.57;4.05;;;;;13.20;95574.00;;;;8465091;28;20201;-71
2023/03/24 01:51:23;;;;;;;6.63;3.45;;;;;13.00;95567.00;;;;8462495;28;20218;-70
2023/03/24 01:55:33;;;;;;;8.45;3.72;;;;;12.90;95572.00;;;;8462034;28;20352;-70
2023/03/24 01:59:39;;;;;;;5.22;3.63;;;;;12.80;95609.00;;;;8464981;28;20219;-70
2023/03/24 02:03:43;;;;;;;5.63;3.33;;;;;12.80;95597.00;;;;8462930;28;20252;-69
2023/03/24 02:07:53;;;;;;;5.32;3.58;;;;;12.70;95571.00;;;;8464071;28;20248;-69
2023/03/24 02:11:59;;;;;;;9.75;3.92;;;;;12.60;95575.00;;;;8464011;28;20225;-69
2023/03/24 02:16:18;;;;;;;4.82;3.92;;;;;12.60;95583.00;;;;8462816;28;20237;-69
2023/03/24 02:20:37;;;;;;;10.10;4.07;;;;;12.50;95607.00;;;;8462314;28;20190;-69
2023/03/24 02:25:12;;;;;;;8.02;3.83;;;;;12.40;95611.00;;;;8463461;28;20236;-70
2023/03/24 02:30:14;;;;;;;4.82;3.90;;;;;12.40;95600.00;;;;8461047;28;20285;-70
2023/03/24 02:34:55;;;;;;;6.35;4.38;;;;;12.30;95596.00;;;;8347579;28;20199;-70
2023/03/24 02:39:41;;;;;;;6.22;4.15;;;;;12.30;95594.00;;;;8427468;28;20512;-68
2023/03/24 02:43:54;;;;;;;8.02;4.45;;;;;12.20;95569.00;;;;8464071;28;20184;-68
2023/03/24 02:48:15;;;;;;;7.93;4.55;;;;;12.10;95563.00;;;;8463873;28;20204;-69
2023/03/24 02:52:24;;;;;;;6.78;4.68;;;;;12.10;95559.00;;;;8464005;28;20224;-68
2023/03/24 02:56:37;;;;;;;10.50;4.57;;;;;12.10;95546.00;;;;8468764;28;20199;-69
2023/03/24 03:04:55;;;;;;;8.93;4.97;;;;;12.00;95531.00;;;;8386678;28;20203;-70
2023/03/24 03:09:04;;;;;;;8.38;4.78;;;;;12.00;95516.00;;;;8411092;28;20195;-71
2023/03/24 03:13:14;;;;;;;8.43;5.35;;;;;12.00;95515.00;;;;8401272;28;20194;-70
2023/03/24 03:17:21;;;;;;;7.22;4.72;;;;;12.00;95503.00;;;;8391326;28;20338;-70
2023/03/24 03:21:29;;;;;;;8.85;5.07;;;;;12.00;95507.00;;;;8407944;28;20203;-72
2023/03/24 03:25:41;;;;;;;6.60;4.88;;;;;11.90;95493.00;;;;8417631;28;20270;-69
2023/03/24 03:29:49;;;;;;;6.45;4.45;;;;;11.90;95492.00;;;;8410175;28;20583;-72
2023/03/24 03:33:58;;;;;;;7.90;5.03;;;;;11.90;95484.00;;;;8408189;28;20240;-70
2023/03/24 03:38:10;;;;;;;8.68;5.22;;;;;11.80;95474.00;;;;8399579;28;20692;-71
2023/03/24 03:42:14;;;;;;;8.35;5.18;;;;;11.80;95463.00;;;;8415470;28;20965;-70
2023/03/24 03:46:19;;;;;;;7.63;4.85;;;;;11.80;95461.00;;;;8399442;28;20196;-73
2023/03/24 03:50:25;;;;;;;9.25;6.00;;;;;11.80;95459.00;;;;8406343;28;20258;-73
2023/03/24 03:54:30;;;;;;;9.13;5.38;;;;;11.80;95451.00;;;;8418728;28;20609;-71
2023/03/24 03:58:34;;;;;;;11.30;6.00;;;;;11.80;95454.00;;;;8408995;28;20311;-71
2023/03/24 04:02:47;;;;;;;7.82;5.20;;;;;11.80;95427.00;;;;8372032;28;20561;-73
2023/03/24 04:07:07;;;;;;;8.48;5.22;;;;;11.90;95435.00;;;;8381436;28;20289;-73
2023/03/24 04:11:40;;;;;;;8.52;5.72;;;;;11.90;95446.00;;;;8370082;28;20331;-72
2023/03/24 04:15:49;;;;;;;9.25;5.80;;;;;12.00;95434.00;;;;8355697;28;20195;-76
2023/03/24 04:20:06;;;;;;;8.25;5.68;;;;;12.00;95443.00;;;;8376353;28;20385;-73
2023/03/24 04:24:26;;;;;;;10.57;6.20;;;;;12.00;95435.00;;;;8356039;28;20195;-77
2023/03/24 04:28:39;;;;;;;9.57;5.65;;;;;12.00;95436.00;;;;8368566;28;20210;-72
2023/03/24 04:32:48;;;;;;;9.40;5.57;;;;;12.00;95433.00;;;;8375442;28;20858;-71
2023/03/24 04:37:02;;;;;;;8.15;5.55;;;;;12.10;95432.00;;;;8380820;28;20245;-75
2023/03/24 04:41:08;;;;;;;7.35;5.25;;;;;12.10;95443.00;;;;8379723;28;20272;-72
2023/03/24 04:45:12;;;;;;;10.18;6.25;;;;;12.20;95438.00;;;;8381981;28;20203;-73
2023/03/24 04:49:15;;;;;;;8.75;5.97;;;;;12.10;95460.00;;;;8388704;28;20198;-72
2023/03/24 04:53:23;;;;;;;7.70;5.60;;;;;12.10;95441.00;;;;8377289;28;20228;-71
2023/03/24 04:57:29;;;;;;;8.52;5.28;;;;;12.10;95435.00;;;;8383713;28;20480;-73
2023/03/24 05:01:36;;;;;;;9.60;5.70;;;;;12.20;95441.00;;;;8372924;28;20274;-73
2023/03/24 05:05:41;;;;;;;8.75;5.80;;;;;12.20;95443.00;;;;8372457;28;20211;-73
2023/03/24 05:09:46;;;;;;;9.63;5.20;;;;;12.20;95458.00;;;;8381277;28;20576;-73
2023/03/24 05:13:52;;;;;;;8.07;5.72;;;;;12.30;95463.00;;;;8379030;28;20195;-76
2023/03/24 05:17:55;;;;;;;8.18;5.65;;;;;12.30;95472.00;;;;8377582;28;20190;-74
2023/03/24 05:21:58;;;;;;;9.65;5.55;;;;;12.30;95475.00;;;;8378114;28;20202;-70
2023/03/24 05:26:03;;;;;;;13.48;5.95;;;;;12.20;95473.00;;;;8382830;28;20783;-72
2023/03/24 05:30:08;;;;;;;8.70;5.60;;;;;12.10;95468.00;;;;8379951;28;20226;-71
2023/03/24 05:34:12;;;;;;;9.30;5.40;;;;;12.10;95468.00;;;;8367850;28;20222;-73
2023/03/24 05:38:15;;;;;;;8.50;5.38;;;;;12.10;95471.00;;;;8368880;28;20206;-70
2023/03/24 05:42:21;;;;;;;8.35;5.38;;;;;12.00;95468.00;;;;8371734;28;20248;-70
2023/03/24 05:46:27;;;;;;;11.43;5.90;;;;;12.00;95472.00;;;;8379815;28;20199;-70
2023/03/24 05:50:30;;;;;;;10.05;5.53;;;;;12.00;95470.00;;;;8379994;28;20251;-70
2023/03/24 05:54:33;;;;;;;7.82;5.97;;;;;12.10;95448.00;;;;8374070;28;20196;-72
2023/03/24 05:58:43;;;;;;;9.98;6.00;;;;;12.20;95445.00;;;;8375917;28;20240;-71
2023/03/24 06:02:49;;;;;;;8.45;5.15;;;;;12.20;95464.00;;;;8370167;28;20221;-71
2023/03/24 06:06:57;;;;;;;8.23;5.32;;;;;12.30;95461.00;;;;8373284;28;20229;-72
2023/03/24 06:11:02;;;;;;;8.32;4.85;;;;;12.30;95452.00;;;;8371125;28;20226;-72
2023/03/24 06:15:16;;;;;;;13.20;5.65;;;;;12.50;95442.00;;;;8365533;28;20199;-73
2023/03/24 06:19:21;;;;;;;6.13;5.03;;;;;12.60;95447.00;;;;8363997;28;20215;-71
2023/03/24 06:23:27;;;;;;;9.30;4.50;;;;;12.80;95435.00;;;;8372683;28;20321;-72
2023/03/24 06:27:30;;;;;;;8.55;4.53;;;;;12.90;95434.00;;;;8376689;28;20979;-74
2023/03/24 06:31:36;;;;;;;7.78;4.95;;;;;13.10;95440.00;;;;8382844;28;20679;-72
2023/03/24 06:35:39;;;;;;;11.05;4.60;;;;;13.20;95459.00;;;;8381973;28;20208;-73
2023/03/24 06:44:16;;;;;;;6.40;5.22;;;;;13.20;95459.00;;;;8384649;28;20202;-72
2023/03/24 06:48:20;;;;;;;9.60;4.95;;;;;13.20;95436.00;;;;8385461;28;20196;-73
2023/03/24 06:52:26;;;;;;;6.15;4.28;;;;;13.10;95445.00;;;;8381052;28;20226;-73
2023/03/24 06:56:40;;;;;;;7.32;5.03;;;;;13.10;95432.00;;;;8363760;28;20193;-71
2023/03/24 07:00:46;;;;;;;4.53;3.90;;;;;13.00;95416.00;;;;8381478;28;20200;-72
2023/03/24 07:04:52;;;;;;;5.30;4.55;;;;;13.00;95417.00;;;;8381480;28;20966;-72
2023/03/24 07:08:56;;;;;;;17.38;12.25;;;;;13.10;95429.00;;;;8376446;28;20203;-71
2023/03/24 07:13:02;;;;;;;209.70;153.43;;;;;13.10;95424.00;;;;8380525;28;20883;-72
2023/03/24 07:17:05;;;;;;;50.15;43.72;;;;;13.20;95434.00;;;;8382902;28;20207;-74
2023/03/24 07:21:09;;;;;;;9.85;7.72;;;;;13.40;95437.00;;;;8378673;28;20247;-73
2023/03/24 07:25:13;;;;;;;19.63;11.75;;;;;13.60;95425.00;;;;8377905;28;20233;-71
2023/03/24 07:29:16;;;;;;;7.75;5.75;;;;;13.70;95431.00;;;;8385335;28;20203;-73
2023/03/24 07:33:26;;;;;;;11.00;9.43;;;;;13.80;95445.00;;;;8400506;28;20219;-71
2023/03/24 07:37:32;;;;;;;74.15;66.95;;;;;13.80;95451.00;;;;8401051;28;20199;-71
2023/03/24 07:41:36;;;;;;;9.43;8.00;;;;;13.80;95462.00;;;;8400429;28;20184;-71
2023/03/24 07:45:44;;;;;;;10.52;9.52;;;;;13.60;95471.00;;;;8401151;28;20192;-72
2023/03/24 07:49:47;;;;;;;11.68;10.63;;;;;13.60;95481.00;;;;8400975;28;20210;-71
2023/03/24 07:53:52;;;;;;;9.60;8.55;;;;;13.60;95479.00;;;;8400837;28;20218;-71
2023/03/24 07:57:55;;;;;;;11.25;10.05;;;;;13.70;95473.00;;;;8398109;28;20191;-71
2023/03/24 08:01:58;;;;;;;7.95;7.13;;;;;13.80;95494.00;;;;8400517;28;20661;-71
2023/03/24 08:06:05;;;;;;;50.97;42.20;;;;;13.90;95495.00;;;;8399028;28;20194;-72
2023/03/24 08:10:14;;;;;;;7.78;4.85;;;;;13.90;95486.00;;;;8399704;28;20196;-71
2023/03/24 08:14:19;;;;;;;3.97;3.55;;;;;13.90;95498.00;;;;8400327;28;20310;-71
2023/03/24 08:18:24;;;;;;;5.30;4.15;;;;;13.80;95494.00;;;;8399813;28;20191;-71
2023/03/24 08:22:29;;;;;;;7.00;4.47;;;;;13.90;95510.00;;;;8399914;28;20217;-71
2023/03/24 08:26:34;;;;;;;6.40;4.80;;;;;13.90;95510.00;;;;8399935;28;20199;-73
2023/03/24 08:30:42;;;;;;;5.20;4.50;;;;;13.90;95510.00;;;;8399500;28;20195;-73
2023/03/24 08:34:45;;;;;;;8.77;5.03;;;;;13.90;95511.00;;;;8399769;28;20242;-73
2023/03/24 08:38:53;;;;;;;6.53;5.00;;;;;14.00;95510.00;;;;8398739;28;20243;-74
2023/03/24 08:43:07;;;;;;;6.22;4.95;;;;;14.00;95520.00;;;;8395069;28;20203;-73
2023/03/24 08:47:11;;;;;;;7.82;5.10;;;;;14.00;95514.00;;;;8397888;28;20591;-72
2023/03/24 08:51:17;;;;;;;6.70;4.25;;;;;13.90;95519.00;;;;8393922;28;20199;-71
2023/03/24 08:55:21;;;;;;;7.07;5.30;;;;;13.90;95522.00;;;;8399098;28;20192;-72
2023/03/24 08:59:27;;;;;;;9.93;5.55;;;;;13.70;95521.00;;;;8398070;28;20632;-72
2023/03/24 09:03:30;;;;;;;10.07;5.75;;;;;13.70;95520.00;;;;8398001;28;20230;-72
2023/03/24 09:07:36;;;;;;;7.32;5.40;;;;;13.70;95526.00;;;;8397699;28;20192;-71
2023/03/24 09:11:40;;;;;;;14.45;7.32;;;;;13.60;95529.00;;;;8398411;28;20216;-71
2023/03/24 09:15:54;;;;;;;12.77;11.40;;;;;13.50;95539.00;;;;8398571;28;20576;-71
2023/03/24 09:19:57;;;;;;;68.10;61.90;;;;;13.50;95553.00;;;;8399873;28;20551;-71
2023/03/24 09:24:06;;;;;;;21.95;16.27;;;;;13.50;95559.00;;;;8379682;28;20351;-71
2023/03/24 09:28:09;;;;;;;164.73;110.45;;;;;13.50;95550.00;;;;8398029;28;20640;-72
2023/03/24 09:32:15;;;;;;;1759.35;949.15;;;;;13.50;95556.00;;;;8397070;28;20266;-70
2023/03/24 09:36:18;;;;;;;499.60;257.33;;;;;13.50;95554.00;;;;8397179;28;20184;-71
2023/03/24 09:40:26;;;;;;;984.40;545.15;;;;;13.40;95551.00;;;;8397360;28;20281;-72
2023/03/24 09:44:33;;;;;;;716.33;557.75;;;;;13.40;95555.00;;;;8396924;28;20279;-72
2023/03/24 09:48:46;;;;;;;170.80;152.55;;;;;13.50;95561.00;;;;8398579;28;20196;-72
2023/03/24 09:52:54;;;;;;;122.13;90.18;;;;;13.50;95562.00;;;;8396266;28;20672;-72
2023/03/24 09:57:02;;;;;;;123.80;79.10;;;;;13.50;95572.00;;;;8396419;28;20189;-72
2023/03/24 10:01:13;;;;;;;61.85;42.63;;;;;13.60;95571.00;;;;8380015;28;20290;-71
2023/03/24 10:05:22;;;;;;;47.00;35.88;;;;;13.60;95568.00;;;;8404319;28;20190;-72
2023/03/24 10:09:28;;;;;;;14.35;8.32;;;;;13.60;95571.00;;;;8403352;28;20196;-71
2023/03/24 10:13:46;;;;;;;22.42;16.73;;;;;13.60;95574.00;;;;8403574;28;20568;-71
2023/03/24 10:17:56;;;;;;;13.32;9.82;;;;;13.70;95570.00;;;;8403690;28;20536;-72
2023/03/24 10:22:09;;;;;;;8.80;7.07;;;;;13.80;95584.00;;;;8403534;28;20198;-71
2023/03/24 10:26:28;;;;;;;6.85;5.60;;;;;13.90;95575.00;;;;8403873;28;20192;-71
2023/03/24 10:30:35;;;;;;;15.05;13.48;;;;;14.00;95575.00;;;;8401604;28;20195;-72
2023/03/24 10:34:44;;;;;;;9.13;7.43;;;;;13.90;95580.00;;;;8403573;28;20310;-72
2023/03/24 10:38:52;;;;;;;11.63;8.77;;;;;13.90;95587.00;;;;8402161;28;20196;-73
2023/03/24 10:42:58;;;;;;;6.80;5.60;;;;;13.90;95566.00;;;;8402627;28;20238;-72
2023/03/24 10:47:14;;;;;;;6.30;4.70;;;;;13.90;95530.00;;;;8402968;28;20177;-71
2023/03/24 10:51:19;;;;;;;6.38;5.10;;;;;14.20;95498.00;;;;8402560;28;20294;-71
2023/03/24 10:55:31;;;;;;;5.60;4.22;;;;;14.50;95463.00;;;;8403357;28;20733;-72
2023/03/24 10:59:38;;;;;;;6.20;4.28;;;;;14.80;95474.00;;;;8402867;28;20231;-67
2023/03/24 11:03:41;;;;;;;5.00;4.35;;;;;14.90;95510.00;;;;8402251;28;20668;-68
2023/03/24 11:07:46;;;;;;;5.55;4.20;;;;;15.10;95518.00;;;;8402028;28;20196;-67
2023/03/24 11:11:58;;;;;;;4.13;3.05;;;;;15.00;95516.00;;;;8401865;28;20230;-66
2023/03/24 11:16:12;;;;;;;4.90;3.97;;;;;15.00;95515.00;;;;8402182;28;20223;-67
2023/03/24 11:20:22;;;;;;;5.03;3.92;;;;;15.10;95533.00;;;;8402649;28;20231;-67
2023/03/24 11:24:37;;;;;;;5.05;3.78;;;;;15.20;95536.00;;;;8402013;28;20633;-65
2023/03/24 11:28:46;;;;;;;6.00;4.22;;;;;15.30;95538.00;;;;8399040;28;20653;-66
2023/03/24 11:32:54;;;;;;;4.93;3.97;;;;;15.40;95547.00;;;;8401388;28;20215;-66
2023/03/24 11:37:01;;;;;;;7.97;4.63;;;;;15.40;95547.00;;;;8401969;28;20537;-67
2023/03/24 11:41:08;;;;;;;7.47;5.10;;;;;15.10;95554.00;;;;8401532;28;20230;-67
2023/03/24 11:45:24;;;;;;;7.03;5.38;;;;;14.90;95545.00;;;;8401296;28;20687;-67
2023/03/24 11:49:30;;;;;;;7.22;4.85;;;;;14.90;95550.00;;;;8401211;28;20629;-66
2023/03/24 11:53:41;;;;;;;5.25;4.45;;;;;14.90;95541.00;;;;8400744;28;20224;-67
2023/03/24 11:57:52;;;;;;;7.72;4.53;;;;;15.10;95524.00;;;;8398509;28;20192;-66
2023/03/24 12:02:05;;;;;;;4.47;4.07;;;;;15.40;95524.00;;;;8400225;28;20269;-66
2023/03/24 12:06:21;;;;;;;4.32;3.78;;;;;15.80;95514.00;;;;8399916;28;20196;-67
2023/03/24 12:10:38;;;;;;;3.47;3.20;;;;;16.00;95500.00;;;;8399650;28;20199;-67
2023/03/24 12:14:53;;;;;;;4.07;3.63;;;;;16.00;95502.00;;;;8400651;28;20568;-67
2023/03/24 12:19:18;;;;;;;4.10;3.67;;;;;16.30;95490.00;;;;8398471;28;20510;-67
2023/03/24 12:23:31;;;;;;;6.10;4.07;;;;;16.60;95493.00;;;;8392016;28;20192;-74
2023/03/24 12:27:42;;;;;;;4.65;3.13;;;;;16.80;95465.00;;;;8398079;28;20234;-75
2023/03/24 12:32:13;;;;;;;3.58;3.10;;;;;16.80;95462.00;;;;8399079;28;20265;-75
2023/03/24 12:36:40;;;;;;;4.07;3.30;;;;;16.80;95467.00;;;;8398589;28;20241;-74
2023/03/24 12:41:16;;;;;;;2.72;2.63;;;;;16.90;95475.00;;;;8399516;28;20191;-74
2023/03/24 12:45:34;;;;;;;4.15;2.00;;;;;16.80;95458.00;;;;8372428;28;20253;-69
2023/03/24 12:50:01;;;;;;;2.75;2.55;;;;;16.80;95474.00;;;;8381230;28;20231;-72
2023/03/24 12:54:18;;;;;;;2.42;2.20;;;;;16.90;95470.00;;;;8398648;28;20607;-72
2023/03/24 12:58:40;;;;;;;3.17;2.13;;;;;17.00;95461.00;;;;8399245;28;20188;-72
2023/03/24 13:02:47;;;;;;;3.00;2.70;;;;;17.10;95462.00;;;;8397217;28;20681;-72
2023/03/24 13:06:55;;;;;;;3.63;2.70;;;;;17.30;95451.00;;;;8398551;28;20196;-71
2023/03/24 13:11:08;;;;;;;3.03;2.53;;;;;17.50;95446.00;;;;8398381;28;20203;-71
2023/03/24 13:15:22;;;;;;;2.97;2.70;;;;;17.60;95452.00;;;;8399310;28;20239;-71
2023/03/24 13:19:26;;;;;;;2.75;2.55;;;;;17.60;95447.00;;;;8398213;28;20238;-71
2023/03/24 13:23:40;;;;;;;2.38;2.17;;;;;17.70;95434.00;;;;8397832;28;20637;-70
2023/03/24 13:27:50;;;;;;;3.03;2.72;;;;;17.80;95438.00;;;;8397212;28;20587;-70
2023/03/24 13:31:57;;;;;;;2.72;2.38;;;;;17.80;95434.00;;;;8393878;28;20268;-70
2023/03/24 13:36:30;;;;;;;3.50;3.00;;;;;17.80;95433.00;;;;8397729;28;20227;-71
2023/03/24 13:40:39;;;;;;;3.03;2.50;;;;;17.80;95433.00;;;;8397377;28;20245;-70
2023/03/24 13:44:46;;;;;;;2.60;2.40;;;;;17.80;95431.00;;;;8394346;28;20234;-70
2023/03/24 13:48:54;;;;;;;3.45;2.80;;;;;17.60;95422.00;;;;8376648;28;20693;-68
2023/03/24 13:53:05;;;;;;;2.58;2.38;;;;;17.40;95429.00;;;;8396673;28;20184;-68
2023/03/24 13:57:16;;;;;;;2.75;2.40;;;;;17.40;95420.00;;;;8397909;28;20192;-69
2023/03/24 14:01:38;;;;;;;2.80;2.60;;;;;17.60;95420.00;;;;8396337;28;20299;-70
2023/03/24 14:05:57;;;;;;;2.83;2.63;;;;;17.90;95414.00;;;;8397815;28;20211;-68
2023/03/24 14:10:05;;;;;;;3.22;2.22;;;;;18.20;95397.00;;;;8397098;28;20579;-68
2023/03/24 14:14:18;;;;;;;2.35;2.25;;;;;18.40;95400.00;;;;8378128;28;20220;-68
2023/03/24 14:18:47;;;;;;;2.67;2.40;;;;;18.60;95404.00;;;;8395279;28;20192;-67
2023/03/24 14:22:54;;;;;;;3.30;2.03;;;;;18.80;95387.00;;;;8397234;28;20200;-67
2023/03/24 14:26:57;;;;;;;7.90;4.40;;;;;18.70;95373.00;;;;8394666;28;20188;-67
2023/03/24 14:31:11;;;;;;;2.60;2.40;;;;;18.50;95380.00;;;;8394280;28;20188;-68
2023/03/24 14:35:27;;;;;;;2.28;2.13;;;;;18.40;95384.00;;;;8397429;28;20220;-68
2023/03/24 14:39:36;;;;;;;2.08;1.98;;;;;18.20;95379.00;;;;8398358;28;20207;-68
2023/03/24 14:43:58;;;;;;;3.05;2.30;;;;;18.10;95380.00;;;;8396254;28;20279;-68
2023/03/24 14:48:07;;;;;;;3.63;2.50;;;;;18.10;95365.00;;;;8397227;28;20517;-68
2023/03/24 14:52:24;;;;;;;2.38;2.22;;;;;18.30;95370.00;;;;8402668;28;20184;-68
2023/03/24 14:56:34;;;;;;;2.30;2.10;;;;;18.40;95361.00;;;;8403771;28;20639;-68
2023/03/24 15:00:43;;;;;;;2.22;2.00;;;;;18.30;95365.00;;;;8401862;28;20567;-67
2023/03/24 15:05:17;;;;;;;3.15;1.90;;;;;18.30;95361.00;;;;8401922;28;20192;-67
2023/03/24 15:09:27;;;;;;;2.13;2.00;;;;;18.20;95372.00;;;;8401917;28;20591;-67
2023/03/24 15:13:35;;;;;;;2.42;2.10;;;;;18.20;95372.00;;;;8402471;28;20202;-66
2023/03/24 15:17:45;;;;;;;2.35;1.60;;;;;18.20;95371.00;;;;8401752;28;20273;-67
2023/03/24 15:21:58;;;;;;;1.80;1.70;;;;;18.00;95382.00;;;;8401278;28;20233;-67
2023/03/24 15:26:02;;;;;;;1.85;1.75;;;;;17.80;95381.00;;;;8402399;28;20193;-66
2023/03/24 15:30:13;;;;;;;1.85;1.75;;;;;17.60;95369.00;;;;8400394;28;20195;-66
2023/03/24 15:34:29;;;;;;;1.83;1.73;;;;;17.40;95356.00;;;;8402586;28;20216;-66
2023/03/24 15:38:34;;;;;;;2.30;1.70;;;;;17.10;95372.00;;;;8400785;28;20275;-66
2023/03/24 15:42:43;;;;;;;1.65;1.55;;;;;16.80;95366.00;;;;8401579;28;20192;-66
2023/03/24 15:46:47;;;;;;;3.28;2.13;;;;;15.90;95379.00;;;;8400301;28;20274;-64
2023/03/24 15:50:59;;;;;;;4.68;1.95;;;;;14.90;95408.00;;;;8398894;28;20188;-66
2023/03/24 15:55:08;;;;;;;3.08;2.17;;;;;14.40;95386.00;;;;8399978;28;20211;-69
2023/03/24 15:59:16;;;;;;;2.78;2.20;;;;;14.00;95391.00;;;;8400721;28;20192;-83
2023/03/24 16:03:25;;;;;;;2.30;1.98;;;;;13.70;95371.00;;;;8401368;28;20224;-71
2023/03/24 16:07:32;;;;;;;2.97;2.42;;;;;13.50;95382.00;;;;8401683;28;20629;-67
2023/03/24 16:11:35;;;;;;;16.23;2.83;;;;;13.40;95408.00;;;;8400340;28;20226;-75
2023/03/24 16:15:47;;;;;;;6.40;2.03;;;;;13.30;95410.00;;;;8401143;28;20617;-68
2023/03/24 16:19:50;;;;;;;1.40;1.30;;;;;13.10;95440.00;;;;8400115;28;20689;-71
2023/03/24 16:23:56;;;;;;;2.53;1.35;;;;;12.60;95459.00;;;;8400697;28;20196;-77
2023/03/24 16:28:00;;;;;;;1.52;1.30;;;;;12.40;95467.00;;;;8400465;28;20700;-72
2023/03/24 16:32:09;;;;;;;1.20;1.20;;;;;12.20;95459.00;;;;8399427;28;20197;-75
2023/03/24 16:36:14;;;;;;;0.98;0.98;;;;;12.00;95454.00;;;;8400251;28;20228;-70
2023/03/24 16:40:30;;;;;;;1.75;1.30;;;;;11.90;95459.00;;;;8399186;28;20195;-66
2023/03/24 16:44:38;;;;;;;2.13;1.17;;;;;11.80;95479.00;;;;8396699;28;20205;-65
2023/03/24 16:48:45;;;;;;;1.10;1.10;;;;;11.80;95471.00;;;;8398679;28;20195;-65
2023/03/24 16:52:48;;;;;;;1.20;1.20;;;;;11.60;95472.00;;;;8399255;28;20554;-65
2023/03/24 16:56:53;;;;;;;1.30;1.30;;;;;11.60;95488.00;;;;8398118;28;20542;-65
2023/03/24 17:00:57;;;;;;;2.38;1.58;;;;;11.50;95463.00;;;;8396295;28;20248;-65
2023/03/24 17:05:19;;;;;;;4.55;1.83;;;;;11.30;95462.00;;;;8393421;28;20200;-65
2023/03/24 17:09:25;;;;;;;33.47;17.67;;;;;11.30;95462.00;;;;8381132;28;20214;-66
2023/03/24 17:13:31;;;;;;;2.20;1.80;;;;;11.30;95450.00;;;;8396770;28;20233;-65
2023/03/24 17:17:35;;;;;;;1.63;1.52;;;;;11.30;95475.00;;;;8398289;28;20232;-65
2023/03/24 17:21:43;;;;;;;2.42;2.33;;;;;11.30;95477.00;;;;8396936;28;20321;-65
2023/03/24 17:25:46;;;;;;;107.90;76.07;;;;;11.30;95488.00;;;;8397341;28;20199;-64
2023/03/24 17:29:51;;;;;;;6.88;2.95;;;;;11.30;95487.00;;;;8397673;28;20585;-65
2023/03/24 17:33:57;;;;;;;2.67;2.47;;;;;11.20;95476.00;;;;8398734;28;20226;-66
2023/03/24 17:38:05;;;;;;;3.15;2.22;;;;;11.10;95502.00;;;;8379374;28;20317;-65
2023/03/24 17:42:14;;;;;;;2.90;2.00;;;;;11.10;95488.00;;;;8397793;28;20252;-66
2023/03/24 17:46:17;;;;;;;3.65;1.95;;;;;11.10;95504.00;;;;8390535;28;20194;-66
2023/03/24 17:50:24;;;;;;;5.07;1.60;;;;;11.10;95501.00;;;;8397932;28;20522;-66
2023/03/24 17:54:31;;;;;;;3.60;1.90;;;;;11.10;95503.00;;;;8398378;28;20266;-66
2023/03/24 17:58:35;;;;;;;2.35;2.00;;;;;11.00;95507.00;;;;8396235;28;20622;-66
2023/03/24 18:02:42;;;;;;;2.78;2.58;;;;;11.00;95517.00;;;;8398560;28;20498;-66
2023/03/24 18:06:46;;;;;;;2.38;2.25;;;;;10.90;95520.00;;;;8397693;28;20286;-66
2023/03/24 18:10:50;;;;;;;3.92;2.13;;;;;10.90;95508.00;;;;8398104;28;20221;-66
2023/03/24 18:14:57;;;;;;;5.55;4.30;;;;;10.80;95514.00;;;;8395998;28;20222;-66
2023/03/24 18:19:02;;;;;;;2.58;2.08;;;;;10.70;95508.00;;;;8398025;28;20621;-66
2023/03/24 18:23:10;;;;;;;1.75;1.65;;;;;10.60;95500.00;;;;8399559;28;20222;-66
2023/03/24 18:27:14;;;;;;;2.20;1.77;;;;;10.60;95495.00;;;;8403856;28;20587;-66
2023/03/24 18:31:21;;;;;;;2.95;1.70;;;;;10.50;95501.00;;;;8403416;28;20189;-66
2023/03/24 18:35:26;;;;;;;3.22;1.85;;;;;10.50;95491.00;;;;8403622;28;20223;-66
2023/03/24 18:39:30;;;;;;;5.60;2.10;;;;;10.50;95498.00;;;;8402956;28;20234;-66
2023/03/24 18:43:36;;;;;;;4.30;1.95;;;;;10.50;95502.00;;;;8385793;28;20193;-66
2023/03/24 18:47:44;;;;;;;6.50;2.17;;;;;10.50;95507.00;;;;8403199;28;20233;-66
2023/03/24 18:51:47;;;;;;;2.87;2.10;;;;;10.50;95500.00;;;;8403186;28;20192;-67
2023/03/24 18:55:51;;;;;;;2.85;2.28;;;;;10.60;95485.00;;;;8402765;28;20265;-66
2023/03/24 18:59:58;;;;;;;4.95;2.40;;;;;10.60;95504.00;;;;8402989;28;20193;-66
2023/03/24 19:04:02;;;;;;;6.95;2.60;;;;;10.60;95511.00;;;;8402947;28;20563;-66
2023/03/24 19:08:13;;;;;;;3.72;2.00;;;;;10.70;95508.00;;;;8402639;28;20247;-66
2023/03/24 19:12:17;;;;;;;1.95;1.70;;;;;10.70;95499.00;;;;8402477;28;20200;-66
2023/03/24 19:16:24;;;;;;;2.47;1.80;;;;;10.70;95507.00;;;;8402253;28;20218;-66
2023/03/24 19:20:28;;;;;;;2.80;1.70;;;;;10.70;95509.00;;;;8401651;28;20180;-66
2023/03/24 19:24:32;;;;;;;1.92;1.73;;;;;10.60;95517.00;;;;8403122;28;20200;-66
2023/03/24 19:28:36;;;;;;;3.17;2.35;;;;;10.60;95515.00;;;;8401118;28;20492;-66
2023/03/24 19:32:41;;;;;;;4.22;2.42;;;;;10.60;95519.00;;;;8402526;28;20238;-66
2023/03/24 19:36:45;;;;;;;3.03;1.98;;;;;10.60;95512.00;;;;8398644;28;20307;-66
2023/03/24 19:40:54;;;;;;;2.60;1.92;;;;;10.50;95528.00;;;;8399272;28;20190;-65
2023/03/24 19:44:58;;;;;;;4.40;3.78;;;;;10.50;95519.00;;;;8378547;28;20262;-66
2023/03/24 19:49:04;;;;;;;9.93;6.35;;;;;10.50;95519.00;;;;8401729;28;20256;-66
2023/03/24 19:53:07;;;;;;;9.30;5.80;;;;;10.50;95523.00;;;;8382753;28;20198;-66
2023/03/24 19:57:12;;;;;;;39.50;20.23;;;;;10.40;95534.00;;;;8401144;28;20219;-66
2023/03/24 20:01:15;;;;;;;167.25;78.50;;;;;10.30;95546.00;;;;8391320;28;20276;-66
2023/03/24 20:05:20;;;;;;;412.25;231.40;;;;;10.30;95558.00;;;;8393990;28;20195;-66
2023/03/24 20:09:23;;;;;;;139.45;68.95;;;;;10.20;95567.00;;;;8400507;28;20507;-66
2023/03/24 20:13:30;;;;;;;247.63;117.50;;;;;10.10;95567.00;;;;8399752;28;20196;-67
2023/03/24 20:17:38;;;;;;;15.07;9.90;;;;;10.00;95568.00;;;;8398782;28;20213;-67
2023/03/24 20:21:44;;;;;;;639.53;291.75;;;;;9.90;95569.00;;;;8396006;28;20192;-67
2023/03/24 20:25:47;;;;;;;53.97;27.23;;;;;9.80;95575.00;;;;8399386;28;20605;-67
2023/03/24 20:29:51;;;;;;;232.10;74.47;;;;;9.80;95572.00;;;;8398486;28;20196;-67
2023/03/24 20:33:55;;;;;;;377.97;119.63;;;;;9.70;95584.00;;;;8399949;28;20566;-67
2023/03/24 20:38:05;;;;;;;284.67;103.70;;;;;9.60;95584.00;;;;8397803;28;20688;-67
2023/03/24 20:42:09;;;;;;;1017.03;414.45;;;;;9.60;95589.00;;;;8400361;28;20267;-67
2023/03/24 20:46:15;;;;;;;45.75;21.58;;;;;9.60;95584.00;;;;8397551;28;20684;-67